Terminal Aerodrome Forecast
Issued by NWS

Home | Current Version | Previous Version | Text Only | Print | Product List | Glossary Off
Versions: 1 2 3 4 5 6 7 8 9 10 11 12 13 14 15 16

000
FTUS43 KMPX 161739
TAFRNH
TAF
KRNH 161739Z 1618/1718 22011KT P6SM VCSH BKN020 BKN050
     FM162300 28008KT P6SM -SHRA VCTS SCT020 BKN040CB
     FM170300 29008KT P6SM VCSH BKN020 BKN040
     FM170600 29008KT P6SM BKN020
     FM170900 28007KT P6SM SCT020 BKN100=

USA.gov is the U.S. government's official web portal to all federal, state and local government web resources and services.